TAF KACV
AMD KACV 080215Z 0802/0824 VRB03KT 2SM BR BKN006 OVC030 TEMPO 0802/0804 1/2SM FG FM080600 VRB03KT 5SM BR OVC006 FM081000 10004KT 5SM BR VCSH SCT007 OVC015 FM081600 01003KT 6SM HZ BKN020 OVC050 FM081900 34006KT P6SM SCT025 BKN050=
METAR KACV
WC KACV
WS KACV
WV KACV